Terminal Aerodrome Forecast
Issued by NWS

Home | Current Version | Previous Version | Graphics & Text | Print | Product List | Glossary On
Versions: 1 2 3 4 5 6 7 8 9 10 11 12 13 14 15 16 17 18 19 20 21
147
FTUS43 KBIS 241636 AAD
TAFMOT
TAF AMD
KMOT 241636Z 2417/2512 10006KT P6SM SCT010
      TEMPO 2417/2418 BKN010
     FM250800 14009KT P6SM BKN015=

USA.gov is the U.S. government's official web portal to all federal, state and local government web resources and services.